Terminal Aerodrome Forecast
Issued by NWS Pocatello, ID

Home | Current Version | Previous Version | Text Only | Print | Product List | Glossary On
Versions: 1 2 3 4 5 6 7 8 9 10 11
000
FTUS45 KPIH 052336
TAFPIH
TAF
KPIH 052336Z 0600/0624 25011KT P6SM VCTS SCT070CB BKN120
     FM060200 19010KT P6SM VCSH SCT070 BKN100 BKN180
     FM061000 23008KT P6SM -SHRA FEW025 BKN070 OVC100
     FM062000 27011KT P6SM VCTS BKN090CB OVC150=

USA.gov is the U.S. government's official web portal to all federal, state and local government web resources and services.